Tenino, WA (98589)

7:48 PM PDT on October 24, 2014 (GMT -0700)
Tenino, WA | Change Station
CLOSE
Current Station
Personal Weather Station
Location: Tenino, WA
Elevation: 283 ft
Nearby Weather Stations

Elev 283 ft 46.86 °N, 122.85 °W | Updated 4 seconds ago

Rain
Rain
51.7 °F
Feels Like 51.7 °F
N
2.0
Wind Variable Wind from NE
Gusts 3.0 mph

Today
High -- | Low -- °F
--% Chance of Precip.
Yesterday
High -- | Low -- °F
Precip. -- in
7:42 AM 6:08 PM
New Moon, 2% visible
Pressure 29.86 in
Visibility 6.0 miles
Clouds Overcast 6000 ft
Dew Point 50 °F
Humidity 94%
Rainfall 0.11 in
Snow Depth Not available.
UV 0 out of 12
Pollen .40 out of 12
PM2.5 Good
Flu Activity Sporadic
METAR KOLM 250154Z 02005KT 6SM -RA BR OVC060 11/10 A2985 RMK AO2 SLP109 P0002 T01110100

More Conditions Fewer Conditions

Pressure 29.86 in
Visibility 6.0 miles
Clouds Overcast 6000 ft
Dew Point 50 °F
Humidity 94%
Rainfall 0.11 in
Snow Depth Not available.
UV 0 out of 12
Pollen .40 out of 12
PM2.5 Good
Flu Activity Sporadic
METAR KOLM 250154Z 02005KT 6SM -RA BR OVC060 11/10 A2985 RMK AO2 SLP109 P0002 T01110100

More Conditions Fewer Conditions

10-Day Weather Forecast

Almanac

Astronomy

Oct. 24, 2014 Rise Set
Actual Time 7:42 AM PDT 6:08 PM PDT
Civil Twilight 7:11 AM PDT 6:39 PM PDT
Nautical Twilight 6:35 AM PDT 7:14 PM PDT
Astronomical Twilight 6:00 AM PDT 7:49 PM PDT
Moon 8:29 AM PDT (10/24) 6:48 PM PDT (10/24)
Length of Visible Light 11h 28m
Length of Day
10h 25m
Tomorrow will be 3m 8s shorter.
New Moon, 2% of the Moon is Illuminated
Today
New Moon
Oct 30
First Quarter
Nov 6
Full
Nov 14
Last Quarter
Nov 22
New

Today's Extremes

State Highs State Lows

Community

WunderPhotos

Upload Photos

1,764,760 photos uploaded!

Nearby

Air Quality

  Air Quality AQ Index Pollutant
Yesterday Good
PM2.5
Current Good
PM2.5

Snow Depth

Station Depth Elevation
Burnt Mountain 0 in 4200 ft
Spirit Lake 0 in 3120 ft
Swift Creek 1 in 3770 ft
June Lake 0 in 3340 ft
Spencer Meadow 0 in 3400 ft

Earthquake Activity

City Distance Mag. Time & Date
Birch Bay, Washington 136 miles 2.8 3:02 AM PDT
2014-10-24
Minimum magnitude displayed is 2.5.

Coastal Water Temperatures

Place Temperature
Port Townsend, WA 52.0 °F
Seattle, WA 55.0 °F
Friday Harbor, WA 51.1 °F
Tacoma, WA 54.0 °F

Nearby Weather Stations